createdAt,value
2018-10-02T00:00:16.025Z,11.80
2018-10-02T00:00:49.487Z,11.80
2018-10-02T00:01:23.036Z,11.90
2018-10-02T00:01:57.740Z,11.90
2018-10-02T00:02:31.255Z,11.80
2018-10-02T00:03:04.825Z,11.80
2018-10-02T00:03:38.386Z,11.80
2018-10-02T00:04:11.853Z,11.90
2018-10-02T00:04:45.375Z,11.80
2018-10-02T00:05:18.885Z,11.90
2018-10-02T00:05:52.384Z,11.80
2018-10-02T00:06:25.960Z,11.80
2018-10-02T00:06:59.462Z,11.90
2018-10-02T00:07:34.127Z,11.90
2018-10-02T00:08:07.598Z,11.90
2018-10-02T00:08:41.071Z,11.90
2018-10-02T00:09:14.613Z,11.90
2018-10-02T00:09:48.054Z,11.90
2018-10-02T00:10:21.580Z,11.90
2018-10-02T00:11:00.273Z,11.90
2018-10-02T00:11:39.042Z,11.90
2018-10-02T00:12:17.817Z,11.90
2018-10-02T00:12:56.564Z,11.90
2018-10-02T00:13:36.287Z,11.90
2018-10-02T00:14:15.135Z,11.90
2018-10-02T00:14:48.617Z,11.80
2018-10-02T00:15:22.234Z,11.90
2018-10-02T00:15:55.718Z,11.90
2018-10-02T00:16:29.328Z,11.90
2018-10-02T00:17:02.828Z,11.90
2018-10-02T00:17:36.341Z,11.90
2018-10-02T00:18:09.870Z,11.90
2018-10-02T00:18:43.381Z,11.90
2018-10-02T00:19:16.887Z,11.90
2018-10-02T00:19:50.406Z,11.90
2018-10-02T00:20:23.936Z,11.90
2018-10-02T00:20:57.448Z,11.90
2018-10-02T00:21:30.887Z,11.90
2018-10-02T00:22:04.507Z,11.90
2018-10-02T00:22:37.976Z,11.90
2018-10-02T00:23:11.548Z,11.90
2018-10-02T00:23:45.036Z,11.90
2018-10-02T00:24:18.648Z,11.80
2018-10-02T00:24:52.067Z,11.80
2018-10-02T00:26:30.740Z,11.90
2018-10-02T00:27:04.316Z,11.90
2018-10-02T00:27:37.825Z,11.90
2018-10-02T00:28:11.270Z,11.90
2018-10-02T00:28:44.800Z,11.90
2018-10-02T00:29:18.386Z,11.90
2018-10-02T00:29:52.884Z,11.90
2018-10-02T00:30:26.480Z,11.90
2018-10-02T00:31:00.037Z,11.90
2018-10-02T00:31:33.624Z,11.90
2018-10-02T00:32:07.275Z,11.90
2018-10-02T00:32:40.671Z,11.90
2018-10-02T00:33:14.176Z,11.90
2018-10-02T00:33:47.623Z,11.90
2018-10-02T00:34:21.232Z,11.90
2018-10-02T00:34:54.731Z,11.90
2018-10-02T00:35:28.333Z,11.90
2018-10-02T00:36:02.791Z,11.90
2018-10-02T00:36:36.261Z,11.90
2018-10-02T00:37:09.732Z,11.90
2018-10-02T00:37:43.429Z,11.90
2018-10-02T00:38:16.972Z,11.90
2018-10-02T00:38:50.409Z,11.90
2018-10-02T00:39:23.959Z,11.90
2018-10-02T00:39:57.493Z,11.90
2018-10-02T00:40:31.010Z,11.90
2018-10-02T00:41:04.464Z,11.90
2018-10-02T00:41:38.718Z,11.90
2018-10-02T00:42:18.835Z,11.90
2018-10-02T00:42:52.285Z,11.90
2018-10-02T00:43:25.835Z,11.90
2018-10-02T00:44:00.189Z,11.90
2018-10-02T00:44:33.768Z,11.90
2018-10-02T00:45:07.267Z,11.90
2018-10-02T00:45:40.879Z,11.90
2018-10-02T00:46:14.415Z,11.90
2018-10-02T00:46:47.868Z,11.80
2018-10-02T00:47:21.412Z,11.80
2018-10-02T00:47:54.843Z,11.80
2018-10-02T00:48:28.341Z,11.80
2018-10-02T00:49:01.884Z,11.80
2018-10-02T00:49:35.393Z,11.80
2018-10-02T00:50:08.971Z,11.80
2018-10-02T00:50:42.449Z,11.80
2018-10-02T00:51:15.968Z,11.80
2018-10-02T00:51:49.540Z,11.80
2018-10-02T00:52:23.098Z,11.70
2018-10-02T00:52:56.622Z,11.80
2018-10-02T00:53:30.101Z,11.70
2018-10-02T00:54:03.583Z,11.70
2018-10-02T00:54:37.272Z,11.80
2018-10-02T00:56:13.843Z,11.80
2018-10-02T00:56:47.300Z,11.80
2018-10-02T00:57:20.825Z,11.70
2018-10-02T00:57:54.310Z,11.70
2018-10-02T00:58:27.936Z,11.70
2018-10-02T00:59:01.446Z,11.70
2018-10-02T00:59:35.062Z,11.70
2018-10-02T01:00:08.601Z,11.70
2018-10-02T01:00:42.107Z,11.70
2018-10-02T01:01:15.645Z,11.70
2018-10-02T01:01:49.203Z,11.70
2018-10-02T01:02:22.983Z,11.70
2018-10-02T01:02:56.454Z,11.70
2018-10-02T01:03:30.022Z,11.70
2018-10-02T01:04:03.566Z,11.70
2018-10-02T01:04:37.031Z,11.70
2018-10-02T01:05:10.535Z,11.70
2018-10-02T01:05:44.054Z,11.70
2018-10-02T01:06:17.509Z,11.70
2018-10-02T01:06:51.013Z,11.70
2018-10-02T01:07:24.504Z,11.70
2018-10-02T01:07:58.060Z,11.70
2018-10-02T01:08:31.554Z,11.70
2018-10-02T01:09:08.915Z,11.70
2018-10-02T01:09:42.444Z,11.70
2018-10-02T01:10:16.762Z,11.70
2018-10-02T01:10:50.318Z,11.70
2018-10-02T01:11:23.809Z,11.70
2018-10-02T01:11:57.296Z,11.70
2018-10-02T01:12:30.811Z,11.70
2018-10-02T01:13:04.339Z,11.70
2018-10-02T01:13:37.943Z,11.70
2018-10-02T01:14:11.810Z,11.70
2018-10-02T01:14:45.357Z,11.70
2018-10-02T01:15:18.831Z,11.70
2018-10-02T01:15:52.552Z,11.70
2018-10-02T01:16:26.010Z,11.70
2018-10-02T01:16:59.496Z,11.70
2018-10-02T01:17:33.133Z,11.70
2018-10-02T01:18:06.815Z,11.70
2018-10-02T01:18:40.354Z,11.70
2018-10-02T01:19:13.900Z,11.70
2018-10-02T01:19:47.375Z,11.70
2018-10-02T01:20:20.866Z,11.70
2018-10-02T01:20:54.375Z,11.70
2018-10-02T01:21:27.861Z,11.70
2018-10-02T01:22:01.847Z,11.70
2018-10-02T01:22:35.318Z,11.70
2018-10-02T01:23:08.794Z,11.70
2018-10-02T01:23:42.255Z,11.70
2018-10-02T01:24:15.772Z,11.70
2018-10-02T01:24:49.337Z,11.70
2018-10-02T01:25:23.083Z,11.70
2018-10-02T01:25:56.594Z,11.70
2018-10-02T01:26:30.202Z,11.70
2018-10-02T01:27:03.870Z,11.80
2018-10-02T01:27:37.411Z,11.80
2018-10-02T01:28:10.983Z,11.70
2018-10-02T01:28:44.462Z,11.70
2018-10-02T01:29:18.069Z,11.80
2018-10-02T01:29:51.867Z,11.70
2018-10-02T01:30:25.388Z,11.70
2018-10-02T01:31:00.146Z,11.80
2018-10-02T01:31:35.917Z,11.70
2018-10-02T01:32:09.539Z,11.70
2018-10-02T01:32:43.004Z,11.70
2018-10-02T01:33:16.509Z,11.70
2018-10-02T01:33:50.042Z,11.80
2018-10-02T01:34:23.625Z,11.70
2018-10-02T01:34:57.556Z,11.70
2018-10-02T01:35:31.098Z,11.70
2018-10-02T01:36:06.076Z,11.70
2018-10-02T01:36:39.575Z,11.70
2018-10-02T01:37:13.110Z,11.70
2018-10-02T01:37:46.681Z,11.70
2018-10-02T01:38:20.207Z,11.60
2018-10-02T01:38:53.733Z,11.60
2018-10-02T01:39:27.236Z,11.60
2018-10-02T01:41:03.864Z,11.60
2018-10-02T01:41:37.382Z,11.60
2018-10-02T01:42:10.857Z,11.50
2018-10-02T01:42:44.369Z,11.50
2018-10-02T01:43:18.010Z,11.40
2018-10-02T01:43:51.505Z,11.40
2018-10-02T01:44:25.133Z,11.40
2018-10-02T01:44:58.649Z,11.50
2018-10-02T01:45:32.240Z,11.40
2018-10-02T01:46:05.799Z,11.50
2018-10-02T01:46:39.426Z,11.50
2018-10-02T01:47:14.293Z,11.50
2018-10-02T01:47:47.796Z,11.50
2018-10-02T01:48:21.322Z,11.50
2018-10-02T01:48:54.887Z,11.50
2018-10-02T01:49:28.411Z,11.50
2018-10-02T01:50:01.959Z,11.50
2018-10-02T01:50:35.505Z,11.50
2018-10-02T01:51:09.054Z,11.50
2018-10-02T01:51:42.540Z,11.50
2018-10-02T01:52:16.125Z,11.50
2018-10-02T01:52:49.650Z,11.50
2018-10-02T01:53:23.137Z,11.50
2018-10-02T01:53:56.636Z,11.50
2018-10-02T01:54:30.361Z,11.50
2018-10-02T01:55:03.862Z,11.50
2018-10-02T01:55:37.493Z,11.50
2018-10-02T01:56:11.054Z,11.50
2018-10-02T01:56:44.606Z,11.50
2018-10-02T01:57:18.165Z,11.50
2018-10-02T01:57:51.633Z,11.50
2018-10-02T01:58:25.106Z,11.40
2018-10-02T01:58:58.579Z,11.50
2018-10-02T01:59:32.117Z,11.40
2018-10-02T02:00:05.858Z,11.40
2018-10-02T02:00:39.394Z,11.40
2018-10-02T02:01:12.919Z,11.40
2018-10-02T02:01:46.502Z,11.40
2018-10-02T02:02:20.047Z,11.40
2018-10-02T02:02:53.519Z,11.40
2018-10-02T02:03:27.073Z,11.40
2018-10-02T02:04:00.629Z,11.40
2018-10-02T02:04:34.134Z,11.40
2018-10-02T02:05:08.210Z,11.40
2018-10-02T02:05:41.769Z,11.50
2018-10-02T02:06:15.248Z,11.50
2018-10-02T02:06:48.753Z,11.50
2018-10-02T02:07:22.272Z,11.50
2018-10-02T02:07:55.748Z,11.50
2018-10-02T02:08:29.222Z,11.50
2018-10-02T02:09:02.779Z,11.50
2018-10-02T02:09:36.243Z,11.50
2018-10-02T02:10:09.834Z,11.50
2018-10-02T02:10:43.315Z,11.50
2018-10-02T02:11:16.867Z,11.50
2018-10-02T02:11:50.327Z,11.50
2018-10-02T02:12:23.899Z,11.50
2018-10-02T02:12:57.361Z,11.50
2018-10-02T02:13:30.892Z,11.50
2018-10-02T02:14:04.572Z,11.50
2018-10-02T02:14:38.143Z,11.50
2018-10-02T02:15:11.595Z,11.50
2018-10-02T02:15:45.110Z,11.50
2018-10-02T02:16:18.768Z,11.50
2018-10-02T02:16:52.263Z,11.50
2018-10-02T02:17:25.806Z,11.50
2018-10-02T02:17:59.302Z,11.50
2018-10-02T02:18:32.804Z,11.50
2018-10-02T02:19:07.115Z,11.50
2018-10-02T02:19:40.620Z,11.50
2018-10-02T02:20:14.268Z,11.50
2018-10-02T02:20:47.777Z,11.50
2018-10-02T02:21:21.259Z,11.50
2018-10-02T02:21:54.775Z,11.50
2018-10-02T02:22:28.281Z,11.50
2018-10-02T02:23:01.807Z,11.50
2018-10-02T02:23:35.271Z,11.50
2018-10-02T02:24:08.786Z,11.50
2018-10-02T02:24:42.304Z,11.50
2018-10-02T02:25:15.824Z,11.50
2018-10-02T02:25:49.286Z,11.50
2018-10-02T02:26:22.784Z,11.50
2018-10-02T02:26:56.264Z,11.50
2018-10-02T02:27:30.896Z,11.50
2018-10-02T02:28:04.433Z,11.50
2018-10-02T02:28:38.864Z,11.50
2018-10-02T02:29:12.403Z,11.50
2018-10-02T02:29:45.925Z,11.50
2018-10-02T02:30:19.423Z,11.50
2018-10-02T02:30:52.875Z,11.50
2018-10-02T02:31:27.212Z,11.60
2018-10-02T02:32:00.707Z,11.60
2018-10-02T02:32:34.162Z,11.60
2018-10-02T02:33:07.639Z,11.60
2018-10-02T02:33:41.119Z,11.60
2018-10-02T02:34:14.606Z,11.60
2018-10-02T02:34:48.108Z,11.60
2018-10-02T02:35:21.630Z,11.60
2018-10-02T02:35:55.164Z,11.60
2018-10-02T02:36:28.685Z,11.50
2018-10-02T02:37:02.161Z,11.60
2018-10-02T02:37:35.638Z,11.50
2018-10-02T02:38:09.189Z,11.50
2018-10-02T02:38:42.688Z,11.50
2018-10-02T02:39:16.157Z,11.50
2018-10-02T02:39:49.645Z,11.40
2018-10-02T02:40:23.203Z,11.50
2018-10-02T02:40:56.702Z,11.40
2018-10-02T02:41:30.187Z,11.50
2018-10-02T02:42:03.768Z,11.40
2018-10-02T02:42:37.285Z,11.50
2018-10-02T02:43:10.888Z,11.50
2018-10-02T02:43:44.364Z,11.50
2018-10-02T02:44:19.150Z,11.40
2018-10-02T02:44:52.632Z,11.40
2018-10-02T02:45:26.113Z,11.40
2018-10-02T02:45:59.550Z,11.50
2018-10-02T02:46:33.072Z,11.50
2018-10-02T02:47:12.822Z,11.50
2018-10-02T02:47:51.526Z,11.50
2018-10-02T02:48:30.464Z,11.50
2018-10-02T02:49:09.408Z,11.50
2018-10-02T02:49:48.126Z,11.40
2018-10-02T02:50:26.944Z,11.40
2018-10-02T02:51:05.812Z,11.40
2018-10-02T02:51:39.385Z,11.40
2018-10-02T02:52:13.640Z,11.40
2018-10-02T02:52:50.705Z,11.40
2018-10-02T02:53:24.292Z,11.40
2018-10-02T02:53:57.810Z,11.40
2018-10-02T02:54:31.333Z,11.40
2018-10-02T02:55:05.052Z,11.40
2018-10-02T02:55:39.599Z,11.40
2018-10-02T02:56:13.170Z,11.40
2018-10-02T02:56:46.721Z,11.40
2018-10-02T02:57:20.257Z,11.40
2018-10-02T02:57:53.731Z,11.40
2018-10-02T02:58:27.205Z,11.40
2018-10-02T02:59:01.304Z,11.40
2018-10-02T02:59:34.834Z,11.30
2018-10-02T03:00:08.361Z,11.30
2018-10-02T03:00:41.888Z,11.40
2018-10-02T03:01:15.377Z,11.40
2018-10-02T03:01:48.874Z,11.30
2018-10-02T03:02:22.555Z,11.40
2018-10-02T03:02:56.028Z,11.40
2018-10-02T03:03:29.504Z,11.40
2018-10-02T03:04:03.109Z,11.40
2018-10-02T03:04:36.549Z,11.40
2018-10-02T03:05:10.043Z,11.40
2018-10-02T03:05:43.581Z,11.40
2018-10-02T03:06:17.086Z,11.40
2018-10-02T03:06:51.373Z,11.40
2018-10-02T03:07:24.860Z,11.40
2018-10-02T03:07:58.364Z,11.40
2018-10-02T03:08:31.875Z,11.40
2018-10-02T03:09:07.595Z,11.40
2018-10-02T03:09:42.492Z,11.40
2018-10-02T03:10:15.960Z,11.40
2018-10-02T03:10:49.512Z,11.40
2018-10-02T03:11:23.013Z,11.40
2018-10-02T03:11:56.525Z,11.40
2018-10-02T03:12:30.048Z,11.50
2018-10-02T03:13:03.608Z,11.40
2018-10-02T03:13:37.235Z,11.50
2018-10-02T03:14:10.742Z,11.50
2018-10-02T03:14:44.232Z,11.50
2018-10-02T03:15:17.787Z,11.50
2018-10-02T03:15:51.790Z,11.50
2018-10-02T03:16:26.058Z,11.40
2018-10-02T03:16:59.581Z,11.40
2018-10-02T03:17:33.078Z,11.40
2018-10-02T03:18:06.616Z,11.40
2018-10-02T03:18:40.149Z,11.40
2018-10-02T03:19:13.655Z,11.40
2018-10-02T03:19:47.194Z,11.40
2018-10-02T03:20:20.691Z,11.40
2018-10-02T03:20:54.315Z,11.40
2018-10-02T03:21:27.772Z,11.40
2018-10-02T03:22:01.253Z,11.50
2018-10-02T03:22:34.665Z,11.40
2018-10-02T03:23:08.270Z,11.50
2018-10-02T03:23:41.786Z,11.40
2018-10-02T03:24:15.695Z,11.40
2018-10-02T03:24:49.166Z,11.40
2018-10-02T03:25:22.654Z,11.40
2018-10-02T03:25:56.158Z,11.40
2018-10-02T03:26:29.715Z,11.40
2018-10-02T03:27:03.261Z,11.40
2018-10-02T03:27:36.894Z,11.40
2018-10-02T03:28:10.374Z,11.40
2018-10-02T03:28:43.859Z,11.40
2018-10-02T03:29:17.361Z,11.30
2018-10-02T03:29:50.886Z,11.30
2018-10-02T03:30:24.368Z,11.30
2018-10-02T03:30:57.846Z,11.30
2018-10-02T03:31:32.183Z,11.30
2018-10-02T03:32:05.670Z,11.40
2018-10-02T03:32:39.245Z,11.40
2018-10-02T03:33:12.733Z,11.40
2018-10-02T03:33:46.361Z,11.40
2018-10-02T03:34:19.873Z,11.40
2018-10-02T03:34:53.379Z,11.40
2018-10-02T03:35:26.869Z,11.40
2018-10-02T03:36:00.394Z,11.50
2018-10-02T03:36:33.944Z,11.50
2018-10-02T03:37:07.474Z,11.50
2018-10-02T03:37:40.935Z,11.50
2018-10-02T03:38:14.415Z,11.50
2018-10-02T03:38:48.047Z,11.50
2018-10-02T03:39:21.621Z,11.60
2018-10-02T03:39:55.249Z,11.50
2018-10-02T03:40:28.761Z,11.50
2018-10-02T03:41:02.222Z,11.60
2018-10-02T03:41:35.812Z,11.50
2018-10-02T03:42:09.305Z,11.50
2018-10-02T03:42:42.855Z,11.50
2018-10-02T03:43:16.417Z,11.50
2018-10-02T03:43:49.956Z,11.50
2018-10-02T03:44:23.449Z,11.60
2018-10-02T03:44:56.938Z,11.60
2018-10-02T03:45:30.381Z,11.50
2018-10-02T03:46:03.933Z,11.50
2018-10-02T03:46:37.482Z,11.50
2018-10-02T03:47:11.025Z,11.50
2018-10-02T03:47:44.563Z,11.50
2018-10-02T03:48:18.644Z,11.60
2018-10-02T03:48:52.135Z,11.50
2018-10-02T03:49:25.668Z,11.50
2018-10-02T03:49:59.252Z,11.50
2018-10-02T03:50:32.805Z,11.50
2018-10-02T03:51:06.366Z,11.50
2018-10-02T03:51:39.906Z,11.50
2018-10-02T03:52:13.416Z,11.50
2018-10-02T03:52:46.944Z,11.50
2018-10-02T03:53:20.457Z,11.50
2018-10-02T03:53:53.984Z,11.50
2018-10-02T03:54:28.230Z,11.50
2018-10-02T03:55:01.707Z,11.50
2018-10-02T03:55:35.165Z,11.50
2018-10-02T03:56:08.948Z,11.50
2018-10-02T03:56:42.606Z,11.50
2018-10-02T03:57:16.167Z,11.50
2018-10-02T03:57:49.629Z,11.50
2018-10-02T03:58:23.116Z,11.50
2018-10-02T03:58:56.684Z,11.50
2018-10-02T03:59:30.191Z,11.50
2018-10-02T04:00:03.740Z,11.50
2018-10-02T04:00:37.239Z,11.50
2018-10-02T04:01:10.866Z,11.50
2018-10-02T04:01:44.632Z,11.50
2018-10-02T04:02:18.144Z,11.60
2018-10-02T04:02:51.692Z,11.60
2018-10-02T04:03:25.203Z,11.60
2018-10-02T04:03:58.743Z,11.60
2018-10-02T04:04:32.215Z,11.60
2018-10-02T04:05:05.726Z,11.60
2018-10-02T04:05:39.239Z,11.60
2018-10-02T04:06:12.744Z,11.60
2018-10-02T04:06:46.231Z,11.60
2018-10-02T04:07:21.042Z,11.60
2018-10-02T04:07:54.578Z,11.60
2018-10-02T04:08:28.261Z,11.60
2018-10-02T04:09:01.836Z,11.60
2018-10-02T04:09:35.411Z,11.60
2018-10-02T04:10:08.958Z,11.60
2018-10-02T04:10:42.483Z,11.60
2018-10-02T04:11:15.972Z,11.60
2018-10-02T04:11:49.474Z,11.60
2018-10-02T04:12:22.982Z,11.60
2018-10-02T04:12:56.632Z,11.60
2018-10-02T04:13:30.356Z,11.60
2018-10-02T04:14:04.102Z,11.60
2018-10-02T04:14:37.675Z,11.60
2018-10-02T04:15:11.162Z,11.60
2018-10-02T04:15:44.687Z,11.60
2018-10-02T04:16:18.148Z,11.60
2018-10-02T04:16:51.696Z,11.60
2018-10-02T04:17:25.228Z,11.60
2018-10-02T04:17:58.857Z,11.60
2018-10-02T04:18:32.371Z,11.60
2018-10-02T04:19:06.080Z,11.60
2018-10-02T04:19:39.555Z,11.60
2018-10-02T04:20:13.156Z,11.60
2018-10-02T04:20:46.720Z,11.60
2018-10-02T04:21:26.171Z,11.60
2018-10-02T04:21:59.676Z,11.60
2018-10-02T04:22:33.175Z,11.60
2018-10-02T04:23:07.396Z,11.60
2018-10-02T04:23:40.869Z,11.60
2018-10-02T04:24:14.434Z,11.60
2018-10-02T04:24:47.942Z,11.60
2018-10-02T04:25:21.623Z,11.60
2018-10-02T04:25:55.100Z,11.60
2018-10-02T04:26:28.600Z,11.60
2018-10-02T04:27:02.092Z,11.60
2018-10-02T04:27:35.571Z,11.60
2018-10-02T04:28:09.025Z,11.60
2018-10-02T04:28:42.555Z,11.60
2018-10-02T04:29:16.089Z,11.60
2018-10-02T04:29:49.595Z,11.60
2018-10-02T04:30:23.136Z,11.60
2018-10-02T04:30:56.654Z,11.60
2018-10-02T04:31:30.919Z,11.60
2018-10-02T04:32:05.131Z,11.60
2018-10-02T04:32:38.702Z,11.60
2018-10-02T04:33:12.251Z,11.50
2018-10-02T04:33:45.810Z,11.50
2018-10-02T04:34:19.255Z,11.50
2018-10-02T04:34:52.788Z,11.50
2018-10-02T04:35:26.983Z,11.50
2018-10-02T04:36:00.541Z,11.50
2018-10-02T04:36:34.057Z,11.50
2018-10-02T04:37:07.536Z,11.50
2018-10-02T04:37:41.140Z,11.40
2018-10-02T04:38:14.617Z,11.50
2018-10-02T04:38:48.112Z,11.50
2018-10-02T04:39:21.650Z,11.50
2018-10-02T04:39:55.269Z,11.50
2018-10-02T04:40:28.797Z,11.50
2018-10-02T04:41:05.094Z,11.50
2018-10-02T04:41:38.756Z,11.50
2018-10-02T04:42:12.289Z,11.50
2018-10-02T04:42:45.837Z,11.50
2018-10-02T04:43:19.330Z,11.50
2018-10-02T04:43:52.970Z,11.50
2018-10-02T04:44:26.483Z,11.50
2018-10-02T04:45:00.007Z,11.50
2018-10-02T04:45:33.536Z,11.50
2018-10-02T04:46:07.162Z,11.50
2018-10-02T04:46:40.678Z,11.50
2018-10-02T04:47:14.184Z,11.50
2018-10-02T04:47:47.730Z,11.50
2018-10-02T04:48:21.252Z,11.50
2018-10-02T04:48:54.804Z,11.50
2018-10-02T04:49:28.423Z,11.50
2018-10-02T04:50:01.917Z,11.50
2018-10-02T04:50:36.786Z,11.50
2018-10-02T04:51:10.251Z,11.60
2018-10-02T04:51:43.759Z,11.60
2018-10-02T04:52:17.238Z,11.60
2018-10-02T04:52:50.720Z,11.60
2018-10-02T04:53:24.292Z,11.60
2018-10-02T04:53:57.793Z,11.60
2018-10-02T04:54:31.263Z,11.50
2018-10-02T04:55:04.890Z,11.60
2018-10-02T04:55:38.441Z,11.60
2018-10-02T04:56:12.120Z,11.60
2018-10-02T04:56:45.638Z,11.60
2018-10-02T04:57:19.162Z,11.60
2018-10-02T04:57:52.694Z,11.60
2018-10-02T04:58:26.204Z,11.60
2018-10-02T04:58:59.787Z,11.60
2018-10-02T04:59:33.338Z,11.60
2018-10-02T05:00:08.414Z,11.60
2018-10-02T05:00:41.980Z,11.60
2018-10-02T05:01:15.645Z,11.60
2018-10-02T05:01:49.302Z,11.60
2018-10-02T05:02:22.917Z,11.60
2018-10-02T05:02:56.388Z,11.60
2018-10-02T05:03:29.972Z,11.60
2018-10-02T05:04:03.569Z,11.60
2018-10-02T05:04:37.128Z,11.60
2018-10-02T05:05:10.760Z,11.60
2018-10-02T05:05:44.375Z,11.70
2018-10-02T05:06:17.923Z,11.70
2018-10-02T05:06:51.420Z,11.70
2018-10-02T05:07:25.286Z,11.70
2018-10-02T05:07:58.838Z,11.70
2018-10-02T05:08:32.431Z,11.70
2018-10-02T05:09:07.694Z,11.70
2018-10-02T05:09:41.216Z,11.70
2018-10-02T05:10:14.728Z,11.70
2018-10-02T05:10:48.287Z,11.70
2018-10-02T05:11:22.466Z,11.70
2018-10-02T05:11:56.013Z,11.70
2018-10-02T05:12:29.486Z,11.80
2018-10-02T05:13:02.973Z,11.80
2018-10-02T05:13:36.494Z,11.80
2018-10-02T05:14:10.219Z,11.80
2018-10-02T05:14:43.674Z,11.80
2018-10-02T05:15:17.164Z,11.80
2018-10-02T05:15:50.878Z,11.80
2018-10-02T05:16:24.403Z,11.80
2018-10-02T05:16:57.903Z,11.80
2018-10-02T05:17:31.423Z,11.80
2018-10-02T05:18:04.933Z,11.80
2018-10-02T05:18:38.375Z,11.80
2018-10-02T05:19:11.880Z,11.80
2018-10-02T05:19:45.386Z,11.80
2018-10-02T05:20:18.840Z,11.80
2018-10-02T05:20:52.343Z,11.80
2018-10-02T05:21:25.903Z,11.80
2018-10-02T05:21:59.549Z,11.80
2018-10-02T05:22:33.181Z,11.80
2018-10-02T05:23:06.764Z,11.90
2018-10-02T05:23:40.222Z,11.90
2018-10-02T05:24:13.783Z,11.90
2018-10-02T05:24:47.340Z,11.90
2018-10-02T05:25:20.881Z,11.90
2018-10-02T05:25:54.391Z,11.90
2018-10-02T05:26:28.729Z,11.90
2018-10-02T05:27:08.951Z,11.90
2018-10-02T05:27:42.562Z,11.90
2018-10-02T05:28:15.914Z,11.90
2018-10-02T05:28:49.478Z,11.90
2018-10-02T05:29:23.056Z,11.90
2018-10-02T05:29:56.540Z,11.90
2018-10-02T05:30:30.079Z,11.90
2018-10-02T05:31:03.573Z,11.90
2018-10-02T05:31:37.220Z,11.90
2018-10-02T05:32:10.707Z,12.00
2018-10-02T05:32:44.217Z,11.90
2018-10-02T05:33:17.692Z,12.00
2018-10-02T05:33:51.178Z,11.90
2018-10-02T05:34:24.646Z,11.90
2018-10-02T05:34:59.139Z,11.90
2018-10-02T05:35:32.622Z,12.00
2018-10-02T05:36:06.104Z,12.00
2018-10-02T05:36:39.626Z,12.00
2018-10-02T05:37:13.148Z,12.00
2018-10-02T05:37:46.815Z,12.00
2018-10-02T05:38:20.370Z,12.00
2018-10-02T05:38:53.904Z,12.00
2018-10-02T05:39:27.548Z,12.00
2018-10-02T05:40:01.024Z,12.00
2018-10-02T05:40:34.474Z,11.90
2018-10-02T05:41:08.032Z,11.90
2018-10-02T05:41:41.505Z,12.00
2018-10-02T05:42:15.073Z,11.90
2018-10-02T05:42:48.585Z,11.90
2018-10-02T05:43:22.028Z,11.90
2018-10-02T05:43:55.517Z,11.90
2018-10-02T05:44:29.104Z,11.90
2018-10-02T05:45:02.599Z,11.90
2018-10-02T05:45:36.067Z,11.90
2018-10-02T05:46:10.351Z,11.90
2018-10-02T05:46:44.555Z,11.80
2018-10-02T05:47:18.059Z,11.80
2018-10-02T05:47:51.548Z,11.80
2018-10-02T05:48:25.858Z,11.80
2018-10-02T05:48:59.399Z,11.80
2018-10-02T05:49:33.399Z,11.80
2018-10-02T05:50:07.018Z,11.80
2018-10-02T05:50:40.519Z,11.90
2018-10-02T05:51:14.110Z,11.80
2018-10-02T05:51:47.654Z,11.90
2018-10-02T05:52:21.185Z,11.90
2018-10-02T05:52:54.718Z,11.90
2018-10-02T05:53:28.258Z,11.90
2018-10-02T05:54:01.776Z,11.90
2018-10-02T05:54:35.295Z,11.90
2018-10-02T05:55:08.844Z,11.90
2018-10-02T05:55:42.396Z,11.90
2018-10-02T05:56:15.961Z,11.90
2018-10-02T05:56:49.504Z,11.90
2018-10-02T05:57:23.120Z,11.90
2018-10-02T05:57:56.643Z,11.90
2018-10-02T05:58:30.192Z,11.90
2018-10-02T05:59:03.702Z,11.90
2018-10-02T05:59:37.307Z,11.90
2018-10-02T06:00:10.919Z,11.90
2018-10-02T06:00:45.359Z,11.90
2018-10-02T06:01:18.913Z,11.90
2018-10-02T06:01:53.548Z,11.90
2018-10-02T06:03:09.580Z,11.90
2018-10-02T06:03:44.059Z,11.90
2018-10-02T06:04:17.677Z,11.90
2018-10-02T06:04:51.258Z,12.00
2018-10-02T06:05:24.773Z,12.00
2018-10-02T06:05:58.305Z,11.90
2018-10-02T06:06:31.896Z,12.00
2018-10-02T06:07:05.637Z,12.00
2018-10-02T06:07:39.093Z,12.00
2018-10-02T06:08:12.629Z,12.00
2018-10-02T06:08:46.130Z,12.00
2018-10-02T06:09:19.680Z,12.00
2018-10-02T06:09:53.404Z,12.00
2018-10-02T06:10:26.888Z,12.00
2018-10-02T06:11:00.418Z,12.00
2018-10-02T06:11:33.904Z,12.00
2018-10-02T06:12:08.240Z,12.00
2018-10-02T06:12:41.708Z,12.00
2018-10-02T06:13:15.297Z,12.00
2018-10-02T06:13:48.851Z,12.00
2018-10-02T06:14:22.420Z,12.00
2018-10-02T06:14:56.031Z,12.00
2018-10-02T06:15:29.577Z,12.00
2018-10-02T06:16:03.069Z,12.00
2018-10-02T06:16:36.557Z,12.10
2018-10-02T06:17:10.178Z,12.00
2018-10-02T06:17:43.727Z,12.00
2018-10-02T06:18:17.280Z,12.00
2018-10-02T06:18:50.800Z,12.00
2018-10-02T06:19:24.568Z,12.00
2018-10-02T06:19:58.087Z,12.00
2018-10-02T06:20:31.639Z,12.00
2018-10-02T06:21:05.305Z,12.00
2018-10-02T06:21:38.985Z,12.00
2018-10-02T06:22:12.672Z,12.00
2018-10-02T06:22:46.282Z,12.00
2018-10-02T06:23:19.921Z,12.00
2018-10-02T06:23:53.598Z,12.00
2018-10-02T06:24:27.090Z,12.10
2018-10-02T06:25:00.577Z,12.10
2018-10-02T06:25:34.264Z,12.10
2018-10-02T06:26:07.985Z,12.10
2018-10-02T06:26:41.683Z,12.10
2018-10-02T06:27:15.444Z,12.10
2018-10-02T06:27:49.192Z,12.10
2018-10-02T06:28:22.680Z,12.10
2018-10-02T06:28:56.337Z,12.10
2018-10-02T06:29:30.030Z,12.10
2018-10-02T06:30:03.680Z,12.10
2018-10-02T06:30:37.212Z,12.10
2018-10-02T06:31:10.699Z,12.10
2018-10-02T06:31:45.591Z,12.10
2018-10-02T06:32:19.115Z,12.00
2018-10-02T06:32:53.592Z,12.00
2018-10-02T06:33:27.119Z,12.00
2018-10-02T06:34:00.620Z,11.90
2018-10-02T06:34:34.120Z,12.00
2018-10-02T06:35:07.830Z,12.00
2018-10-02T06:35:41.302Z,12.00
2018-10-02T06:36:15.042Z,11.90
2018-10-02T06:36:48.640Z,11.90
2018-10-02T06:37:22.127Z,11.90
2018-10-02T06:37:55.691Z,11.90
2018-10-02T06:38:29.310Z,11.90
2018-10-02T06:39:02.806Z,11.90
2018-10-02T06:39:36.233Z,11.80
2018-10-02T06:40:09.782Z,11.80
2018-10-02T06:40:43.331Z,11.90
2018-10-02T06:41:16.897Z,11.90
2018-10-02T06:41:50.391Z,11.80
2018-10-02T06:42:23.952Z,11.90
2018-10-02T06:42:57.488Z,11.80
2018-10-02T06:43:34.770Z,11.80
2018-10-02T06:44:08.412Z,11.80
2018-10-02T06:44:41.944Z,11.80
2018-10-02T06:45:15.552Z,11.80
2018-10-02T06:45:49.040Z,11.80
2018-10-02T06:46:22.544Z,11.80
2018-10-02T06:46:56.019Z,11.80
2018-10-02T06:47:29.578Z,11.80
2018-10-02T06:48:03.083Z,11.80
2018-10-02T06:48:36.674Z,11.80
2018-10-02T06:49:10.233Z,11.80
2018-10-02T06:49:43.916Z,11.80
2018-10-02T06:50:17.404Z,11.80
2018-10-02T06:50:50.992Z,11.80
2018-10-02T06:51:24.675Z,11.80
2018-10-02T06:51:58.138Z,11.80
2018-10-02T06:52:31.942Z,11.80
2018-10-02T06:53:05.497Z,11.80
2018-10-02T06:53:39.013Z,11.80
2018-10-02T06:54:12.543Z,11.70
2018-10-02T06:54:46.026Z,11.80
2018-10-02T06:55:19.601Z,11.80
2018-10-02T06:55:53.103Z,11.80
2018-10-02T06:56:26.567Z,11.80
2018-10-02T06:57:00.251Z,11.80
2018-10-02T06:57:33.683Z,11.80
2018-10-02T06:58:07.199Z,11.80
2018-10-02T06:58:40.647Z,11.80
2018-10-02T06:59:14.163Z,11.80
2018-10-02T06:59:47.737Z,11.80
2018-10-02T07:00:21.316Z,11.80
2018-10-02T07:00:54.812Z,11.80
2018-10-02T07:01:28.293Z,11.80
2018-10-02T07:02:01.847Z,11.80
2018-10-02T07:02:35.381Z,11.80
2018-10-02T07:03:08.957Z,11.80
2018-10-02T07:03:42.486Z,11.80
2018-10-02T07:04:16.045Z,11.80
2018-10-02T07:04:49.761Z,11.80
2018-10-02T07:05:23.326Z,11.90
2018-10-02T07:05:56.927Z,11.80
2018-10-02T07:06:30.453Z,11.80
2018-10-02T07:07:04.035Z,11.80
2018-10-02T07:07:38.000Z,11.80
2018-10-02T07:08:12.576Z,11.80
2018-10-02T07:08:46.143Z,11.80
2018-10-02T07:09:19.693Z,11.80
2018-10-02T07:09:53.255Z,11.80
2018-10-02T07:10:26.768Z,11.80
2018-10-02T07:11:00.351Z,11.80
2018-10-02T07:11:33.854Z,11.80
2018-10-02T07:12:07.492Z,11.80
2018-10-02T07:12:41.118Z,11.90
2018-10-02T07:13:15.139Z,11.90
2018-10-02T07:13:49.464Z,11.80
2018-10-02T07:14:22.998Z,11.80
2018-10-02T07:14:56.631Z,11.80
2018-10-02T07:15:30.103Z,11.80
2018-10-02T07:16:03.617Z,11.80
2018-10-02T07:16:37.187Z,11.80
2018-10-02T07:17:10.708Z,11.80
2018-10-02T07:17:44.253Z,11.80
2018-10-02T07:18:17.841Z,11.80